Time;durP1;ratioP1;P1;durP2;ratioP2;P2;SDS_P1;SDS_P2;PMS_P1;PMS_P2;Temp;Humidity;BMP_temperature;BMP_pressure;BME280_temperature;BME280_humidity;BME280_pressure;Samples;Min_cycle;Max_cycle;Signal;HPM_P1;HPM_P2
2023/09/11 00:00:46;;;;;;;1999.90;999.90;;;;;;;;;;5040687;28;20046;-85
2023/09/11 00:03:12;;;;;;;1999.90;999.90;;;;;;;;;;5038133;28;20152;-84
2023/09/11 00:05:39;;;;;;;1999.90;999.90;;;;;;;;;;5040048;28;20053;-84
2023/09/11 00:08:06;;;;;;;1999.90;999.90;;;;;;;;;;5045571;28;20055;-85
2023/09/11 00:10:35;;;;;;;1999.90;999.90;;;;;;;;;;5047531;28;20050;-85
2023/09/11 00:13:02;;;;;;;1999.90;999.90;;;;;;;;;;5040243;28;20140;-83
2023/09/11 00:15:32;;;;;;;1999.90;999.90;;;;;;;;;;5040753;28;20053;-83
2023/09/11 00:17:59;;;;;;;1999.90;999.90;;;;;;;;;;5047615;28;20135;-85
2023/09/11 00:20:25;;;;;;;1999.90;999.90;;;;;;;;;;5039789;28;20045;-84
2023/09/11 00:22:52;;;;;;;1999.90;999.90;;;;;;;;;;5042667;28;20079;-84
2023/09/11 00:25:19;;;;;;;1999.90;999.90;;;;;;;;;;5042628;28;20723;-84
2023/09/11 00:27:46;;;;;;;1999.90;999.90;;;;;;;;;;5039963;28;20051;-84
2023/09/11 00:30:13;;;;;;;1999.90;999.90;;;;;;;;;;5043500;28;20135;-83
2023/09/11 00:32:40;;;;;;;1999.90;999.90;;;;;;;;;;5044447;28;20049;-84
2023/09/11 00:35:07;;;;;;;1999.90;999.90;;;;;;;;;;5045244;28;20555;-85
2023/09/11 00:37:33;;;;;;;1999.90;999.90;;;;;;;;;;5042224;28;20046;-84
2023/09/11 00:40:00;;;;;;;1999.90;999.90;;;;;;;;;;5040330;28;20144;-85
2023/09/11 00:42:26;;;;;;;1999.90;999.90;;;;;;;;;;5042755;28;20049;-84
2023/09/11 00:44:54;;;;;;;1999.90;999.90;;;;;;;;;;5041895;28;20042;-85
2023/09/11 00:47:21;;;;;;;1999.90;999.90;;;;;;;;;;5040053;28;20060;-84
2023/09/11 00:49:48;;;;;;;1999.90;999.90;;;;;;;;;;5039587;28;20563;-84
2023/09/11 00:52:14;;;;;;;1999.90;999.90;;;;;;;;;;5041708;28;20049;-85
2023/09/11 00:54:41;;;;;;;1999.90;999.90;;;;;;;;;;5040814;28;20413;-85
2023/09/11 00:57:08;;;;;;;1999.90;999.90;;;;;;;;;;5037676;28;20050;-84
2023/09/11 00:59:34;;;;;;;1999.90;999.90;;;;;;;;;;5038729;28;20045;-83
2023/09/11 01:02:02;;;;;;;1999.90;999.90;;;;;;;;;;5042234;28;20060;-84
2023/09/11 01:04:29;;;;;;;1999.90;999.90;;;;;;;;;;5081110;22;20143;-96
2023/09/11 01:06:56;;;;;;;1999.90;999.90;;;;;;;;;;5085322;28;20056;-95
2023/09/11 01:09:22;;;;;;;1999.90;999.90;;;;;;;;;;5083306;28;20064;-93
2023/09/11 01:11:49;;;;;;;1999.90;999.90;;;;;;;;;;5082918;28;20052;-93
2023/09/11 01:14:16;;;;;;;1999.90;999.90;;;;;;;;;;5075632;28;20489;-93
2023/09/11 01:16:47;;;;;;;1999.90;999.90;;;;;;;;;;5084464;28;20100;-93
2023/09/11 01:22:46;;;;;;;1999.90;999.90;;;;;;;;;;5115682;28;20032;-94
2023/09/11 01:25:36;;;;;;;1999.90;999.90;;;;;;;;;;5117023;28;20032;-95
2023/09/11 01:28:32;;;;;;;1999.90;999.90;;;;;;;;;;5092130;28;20095;-93
2023/09/11 01:31:00;;;;;;;1999.90;999.90;;;;;;;;;;5079723;28;20055;-94
2023/09/11 01:33:27;;;;;;;1999.90;999.90;;;;;;;;;;5082714;28;20129;-94
2023/09/11 01:36:02;;;;;;;1999.90;999.90;;;;;;;;;;5090689;28;20055;-94
2023/09/11 01:38:29;;;;;;;1999.90;999.90;;;;;;;;;;5086749;28;20048;-94
2023/09/11 01:40:59;;;;;;;1999.90;999.90;;;;;;;;;;5083918;28;20047;-94
2023/09/11 01:43:27;;;;;;;1999.90;999.90;;;;;;;;;;5075457;28;20551;-94
2023/09/11 01:45:54;;;;;;;1999.90;999.90;;;;;;;;;;5079810;28;20044;-94
2023/09/11 01:48:22;;;;;;;1999.90;999.90;;;;;;;;;;5079379;28;20059;-94
2023/09/11 01:50:49;;;;;;;1999.90;999.90;;;;;;;;;;5092331;28;20076;-94
2023/09/11 01:53:16;;;;;;;1999.90;999.90;;;;;;;;;;5087111;28;20155;-94
2023/09/11 01:55:43;;;;;;;1999.90;999.90;;;;;;;;;;5088104;28;20040;-93
2023/09/11 01:58:10;;;;;;;1999.90;999.90;;;;;;;;;;5087610;28;20123;-93
2023/09/11 02:00:37;;;;;;;1999.90;999.90;;;;;;;;;;5080803;28;20068;-93
2023/09/11 02:03:04;;;;;;;1999.90;999.90;;;;;;;;;;5093024;28;20484;-93
2023/09/11 02:05:32;;;;;;;1999.90;999.90;;;;;;;;;;5079771;28;20048;-94
2023/09/11 02:07:58;;;;;;;1999.90;999.90;;;;;;;;;;5083164;28;20048;-94
2023/09/11 02:10:25;;;;;;;1999.90;999.90;;;;;;;;;;5086473;28;20048;-94
2023/09/11 02:12:51;;;;;;;1999.90;999.90;;;;;;;;;;5089438;28;20039;-93
2023/09/11 02:15:18;;;;;;;1999.90;999.90;;;;;;;;;;5082156;28;20060;-93
2023/09/11 02:17:45;;;;;;;1999.90;999.90;;;;;;;;;;5084736;28;20499;-93
2023/09/11 02:20:11;;;;;;;1999.90;999.90;;;;;;;;;;5081325;28;20087;-94
2023/09/11 02:22:39;;;;;;;1999.90;999.90;;;;;;;;;;5080304;28;20511;-94
2023/09/11 02:25:06;;;;;;;1999.90;999.90;;;;;;;;;;5072946;28;20054;-93
2023/09/11 02:27:33;;;;;;;1999.90;999.90;;;;;;;;;;5074151;28;20047;-93
2023/09/11 02:30:00;;;;;;;1999.90;999.90;;;;;;;;;;5084622;28;20056;-93
2023/09/11 02:32:27;;;;;;;1999.90;999.90;;;;;;;;;;5084389;28;20052;-93
2023/09/11 02:34:54;;;;;;;1999.90;999.90;;;;;;;;;;5064009;28;20053;-94
2023/09/11 02:37:21;;;;;;;1999.90;999.90;;;;;;;;;;5078929;28;20059;-93
2023/09/11 02:39:49;;;;;;;1999.90;999.90;;;;;;;;;;5081761;28;20052;-94
2023/09/11 02:42:16;;;;;;;1999.90;999.90;;;;;;;;;;5089448;28;20059;-94
2023/09/11 02:44:43;;;;;;;1999.90;999.90;;;;;;;;;;5084528;28;20131;-93
2023/09/11 02:47:09;;;;;;;1999.90;999.90;;;;;;;;;;5087421;28;20052;-94
2023/09/11 02:49:36;;;;;;;1999.90;999.90;;;;;;;;;;5084449;28;20127;-93
2023/09/11 02:52:03;;;;;;;1999.90;999.90;;;;;;;;;;5090613;28;20063;-95
2023/09/11 02:54:29;;;;;;;1999.90;999.90;;;;;;;;;;5078614;28;20512;-94
2023/09/11 02:56:57;;;;;;;1999.90;999.90;;;;;;;;;;5081644;28;20052;-94
2023/09/11 02:59:24;;;;;;;1999.90;999.90;;;;;;;;;;5077524;28;20496;-94
2023/09/11 03:01:51;;;;;;;1999.90;999.90;;;;;;;;;;5088348;28;20044;-94
2023/09/11 03:04:17;;;;;;;1999.90;999.90;;;;;;;;;;5087623;28;20118;-94
2023/09/11 03:07:06;;;;;;;1999.90;999.90;;;;;;;;;;5082159;28;20045;-94
2023/09/11 03:09:33;;;;;;;1999.90;999.90;;;;;;;;;;5086591;28;20058;-94
2023/09/11 03:12:01;;;;;;;1999.90;999.90;;;;;;;;;;5085165;28;20135;-94
2023/09/11 03:14:28;;;;;;;1999.90;999.90;;;;;;;;;;5079887;28;20040;-94
2023/09/11 03:16:54;;;;;;;1999.90;999.90;;;;;;;;;;5082103;28;20404;-93
2023/09/11 03:19:21;;;;;;;1999.90;999.90;;;;;;;;;;5083205;28;20052;-95
2023/09/11 03:21:48;;;;;;;1999.90;999.90;;;;;;;;;;5091859;28;20135;-94
2023/09/11 03:24:14;;;;;;;1999.90;999.90;;;;;;;;;;5092218;28;20560;-93
2023/09/11 03:26:41;;;;;;;1999.90;999.90;;;;;;;;;;5087206;28;20055;-95
2023/09/11 03:29:09;;;;;;;1999.90;999.90;;;;;;;;;;5087354;28;20052;-94
2023/09/11 03:31:36;;;;;;;1999.90;999.90;;;;;;;;;;5078275;28;20401;-93
2023/09/11 03:34:02;;;;;;;1999.90;999.90;;;;;;;;;;5086853;28;20419;-94
2023/09/11 03:36:29;;;;;;;1999.90;999.90;;;;;;;;;;5080709;28;20321;-94
2023/09/11 03:38:55;;;;;;;1999.90;999.90;;;;;;;;;;5081787;28;20052;-95
2023/09/11 03:41:22;;;;;;;1999.90;999.90;;;;;;;;;;5086465;28;20048;-95
2023/09/11 03:43:49;;;;;;;1999.90;999.90;;;;;;;;;;5089019;28;20045;-94
2023/09/11 03:46:17;;;;;;;1999.90;999.90;;;;;;;;;;5077546;28;20044;-94
2023/09/11 03:48:43;;;;;;;1999.90;999.90;;;;;;;;;;5085058;28;20098;-93
2023/09/11 03:51:10;;;;;;;1999.90;999.90;;;;;;;;;;5090533;28;20048;-93
2023/09/11 03:53:42;;;;;;;1999.90;999.90;;;;;;;;;;5094000;28;20054;-94
2023/09/11 03:56:09;;;;;;;1999.90;999.90;;;;;;;;;;5089203;28;20078;-94
2023/09/11 03:58:36;;;;;;;1999.90;999.90;;;;;;;;;;5088902;28;20046;-94
2023/09/11 04:01:02;;;;;;;1999.90;999.90;;;;;;;;;;5093114;28;20047;-94
2023/09/11 04:03:30;;;;;;;1999.90;999.90;;;;;;;;;;5091934;28;20062;-94
2023/09/11 04:05:57;;;;;;;1999.90;999.90;;;;;;;;;;5087831;28;20124;-93
2023/09/11 04:08:23;;;;;;;1999.90;999.90;;;;;;;;;;5091401;28;20052;-93
2023/09/11 04:10:50;;;;;;;1999.90;999.90;;;;;;;;;;5092702;28;20063;-94
2023/09/11 04:13:16;;;;;;;1999.90;999.90;;;;;;;;;;5083707;28;20052;-93
2023/09/11 04:15:44;;;;;;;1999.90;999.90;;;;;;;;;;5083419;28;20050;-94
2023/09/11 04:18:11;;;;;;;1999.90;999.90;;;;;;;;;;5076241;28;20055;-94
2023/09/11 04:20:38;;;;;;;1999.90;999.90;;;;;;;;;;5092657;28;20054;-93
2023/09/11 04:23:05;;;;;;;1999.90;999.90;;;;;;;;;;5093773;28;20052;-96
2023/09/11 04:25:33;;;;;;;1999.90;999.90;;;;;;;;;;5078005;28;20053;-94
2023/09/11 04:27:59;;;;;;;1999.90;999.90;;;;;;;;;;5090338;28;20051;-93
2023/09/11 04:30:26;;;;;;;1999.90;999.90;;;;;;;;;;5087710;28;20055;-94
2023/09/11 04:32:53;;;;;;;1999.90;999.90;;;;;;;;;;5079309;28;20058;-93
2023/09/11 04:35:20;;;;;;;1999.90;999.90;;;;;;;;;;5076794;28;20052;-94
2023/09/11 04:37:48;;;;;;;1999.90;999.90;;;;;;;;;;5075519;28;20052;-94
2023/09/11 04:40:14;;;;;;;1999.90;999.90;;;;;;;;;;5083018;28;20409;-92
2023/09/11 04:42:42;;;;;;;1999.90;999.90;;;;;;;;;;5085920;28;20055;-95
2023/09/11 04:45:10;;;;;;;1999.90;999.90;;;;;;;;;;5075407;28;20051;-94
2023/09/11 04:47:36;;;;;;;1999.90;999.90;;;;;;;;;;5075606;28;20136;-94
2023/09/11 04:50:04;;;;;;;1999.90;999.90;;;;;;;;;;5088212;28;20048;-94
2023/09/11 04:52:30;;;;;;;1999.90;999.90;;;;;;;;;;5096077;28;20055;-93
2023/09/11 04:54:59;;;;;;;1999.90;999.90;;;;;;;;;;5081078;28;20051;-94
2023/09/11 04:57:26;;;;;;;1999.90;999.90;;;;;;;;;;5095542;28;20048;-94
2023/09/11 04:59:52;;;;;;;1999.90;999.90;;;;;;;;;;5095733;28;20143;-93
2023/09/11 05:02:19;;;;;;;1999.90;999.90;;;;;;;;;;5096279;28;20062;-94
2023/09/11 05:04:47;;;;;;;1999.90;999.90;;;;;;;;;;5082574;28;20136;-94
2023/09/11 05:07:13;;;;;;;1999.90;999.90;;;;;;;;;;5075156;28;20053;-94
2023/09/11 05:09:40;;;;;;;1999.90;999.90;;;;;;;;;;5091825;28;20141;-94
2023/09/11 05:12:08;;;;;;;1999.90;999.90;;;;;;;;;;5095629;28;20040;-94
2023/09/11 05:14:35;;;;;;;1999.90;999.90;;;;;;;;;;5074929;28;20048;-94
2023/09/11 05:17:01;;;;;;;1999.90;999.90;;;;;;;;;;5074993;28;20148;-95
2023/09/11 05:19:28;;;;;;;1999.90;999.90;;;;;;;;;;5074475;28;20126;-94
2023/09/11 05:21:54;;;;;;;1999.90;999.90;;;;;;;;;;5074710;28;20542;-93
2023/09/11 05:24:21;;;;;;;1999.90;999.90;;;;;;;;;;5089691;28;20138;-94
2023/09/11 05:26:48;;;;;;;1999.90;999.90;;;;;;;;;;5073603;28;20044;-86
2023/09/11 05:29:15;;;;;;;1999.90;999.90;;;;;;;;;;5082674;28;20056;-88
2023/09/11 05:31:42;;;;;;;1999.90;999.90;;;;;;;;;;5078239;28;20048;-86
2023/09/11 05:34:09;;;;;;;1999.90;999.90;;;;;;;;;;5082626;28;20054;-87
2023/09/11 05:36:54;;;;;;;1999.90;999.90;;;;;;;;;;5087165;28;20051;-86
2023/09/11 05:39:20;;;;;;;1999.90;999.90;;;;;;;;;;5087137;28;20043;-87
2023/09/11 05:41:47;;;;;;;1999.90;999.90;;;;;;;;;;5088313;28;20056;-86
2023/09/11 05:44:13;;;;;;;1999.90;999.90;;;;;;;;;;5079802;28;20092;-87
2023/09/11 05:46:41;;;;;;;1999.90;999.90;;;;;;;;;;5073543;28;20048;-87
2023/09/11 05:49:08;;;;;;;1999.90;999.90;;;;;;;;;;5081404;28;20051;-86
2023/09/11 05:51:34;;;;;;;1999.90;999.90;;;;;;;;;;5088155;28;20055;-88
2023/09/11 05:54:01;;;;;;;1999.90;999.90;;;;;;;;;;5083711;28;20044;-86
2023/09/11 05:56:27;;;;;;;1999.90;999.90;;;;;;;;;;5078589;28;20485;-86
2023/09/11 05:58:54;;;;;;;1999.90;999.90;;;;;;;;;;5086331;28;20070;-90
2023/09/11 06:01:20;;;;;;;1999.90;999.90;;;;;;;;;;5086834;28;20044;-87
2023/09/11 06:03:48;;;;;;;1999.90;999.90;;;;;;;;;;5082463;28;20052;-87
2023/09/11 06:06:20;;;;;;;1999.90;999.90;;;;;;;;;;5091021;28;20048;-87
2023/09/11 06:08:47;;;;;;;1999.90;999.90;;;;;;;;;;5078574;28;20044;-88
2023/09/11 06:11:13;;;;;;;1999.90;999.90;;;;;;;;;;5079442;28;20139;-86
2023/09/11 06:13:41;;;;;;;1999.90;999.90;;;;;;;;;;5080174;28;20056;-87
2023/09/11 06:16:07;;;;;;;1999.90;999.90;;;;;;;;;;5087490;28;20044;-87
2023/09/11 06:18:34;;;;;;;1999.90;999.90;;;;;;;;;;5078995;28;20049;-87
2023/09/11 06:21:02;;;;;;;1999.90;999.90;;;;;;;;;;5089579;28;20059;-87
2023/09/11 06:23:29;;;;;;;1999.90;999.90;;;;;;;;;;5079932;28;20051;-88
2023/09/11 06:25:55;;;;;;;1999.90;999.90;;;;;;;;;;5074031;28;20044;-87
2023/09/11 06:28:22;;;;;;;1999.90;999.90;;;;;;;;;;5082000;28;20045;-88
2023/09/11 06:30:48;;;;;;;1999.90;999.90;;;;;;;;;;5081808;28;20040;-86
2023/09/11 06:33:15;;;;;;;1999.90;999.90;;;;;;;;;;5084309;28;20126;-88
2023/09/11 06:35:41;;;;;;;1999.90;999.90;;;;;;;;;;5089768;28;20053;-87
2023/09/11 06:38:10;;;;;;;1999.90;999.90;;;;;;;;;;5080000;28;20056;-88
2023/09/11 06:40:37;;;;;;;1999.90;999.90;;;;;;;;;;5092585;28;20047;-90
2023/09/11 06:43:04;;;;;;;1999.90;999.90;;;;;;;;;;5087154;28;20048;-88
2023/09/11 06:45:33;;;;;;;1999.90;999.90;;;;;;;;;;5083474;28;20048;-87
2023/09/11 06:47:59;;;;;;;1999.90;999.90;;;;;;;;;;5086765;28;20044;-88
2023/09/11 06:50:26;;;;;;;1999.90;999.90;;;;;;;;;;5087487;28;20053;-88
2023/09/11 06:52:53;;;;;;;1999.90;999.90;;;;;;;;;;5082896;28;20072;-88
2023/09/11 06:55:21;;;;;;;1999.90;999.90;;;;;;;;;;5082888;28;20044;-88
2023/09/11 06:57:56;;;;;;;1999.90;999.90;;;;;;;;;;5083941;28;20052;-88
2023/09/11 07:00:22;;;;;;;1999.90;999.90;;;;;;;;;;5076355;28;20056;-88
2023/09/11 07:02:49;;;;;;;1999.90;999.90;;;;;;;;;;5080942;28;20048;-88
2023/09/11 07:05:16;;;;;;;1999.90;999.90;;;;;;;;;;5088730;28;20067;-88
2023/09/11 07:07:42;;;;;;;1999.90;999.90;;;;;;;;;;5086787;28;20051;-88
2023/09/11 07:10:11;;;;;;;1999.90;999.90;;;;;;;;;;5093140;28;20044;-88
2023/09/11 07:12:39;;;;;;;1999.90;999.90;;;;;;;;;;5082418;28;20120;-89
2023/09/11 07:15:07;;;;;;;1999.90;999.90;;;;;;;;;;5087193;28;20043;-89
2023/09/11 07:17:33;;;;;;;1999.90;999.90;;;;;;;;;;5084829;28;20055;-89
2023/09/11 07:20:00;;;;;;;1999.90;999.90;;;;;;;;;;5086003;28;20055;-88
2023/09/11 07:22:26;;;;;;;1999.90;999.90;;;;;;;;;;5080169;28;20485;-89
2023/09/11 07:24:53;;;;;;;1999.90;999.90;;;;;;;;;;5084697;28;20044;-89
2023/09/11 07:27:19;;;;;;;1999.90;999.90;;;;;;;;;;5083927;28;20042;-88
2023/09/11 07:29:48;;;;;;;1999.90;999.90;;;;;;;;;;5085815;28;20056;-88
2023/09/11 07:32:15;;;;;;;1999.90;999.90;;;;;;;;;;5076208;28;20064;-90
2023/09/11 07:34:42;;;;;;;1999.90;999.90;;;;;;;;;;5075783;28;20045;-89
2023/09/11 07:37:18;;;;;;;1999.90;999.90;;;;;;;;;;5092216;28;20059;-89
2023/09/11 07:39:44;;;;;;;1999.90;999.90;;;;;;;;;;5081700;28;20063;-90
2023/09/11 07:42:11;;;;;;;1999.90;999.90;;;;;;;;;;5087648;28;20044;-89
2023/09/11 07:44:37;;;;;;;1999.90;999.90;;;;;;;;;;5083394;28;20054;-90
2023/09/11 07:47:06;;;;;;;1999.90;999.90;;;;;;;;;;5091458;28;20051;-90
2023/09/11 07:49:32;;;;;;;1999.90;999.90;;;;;;;;;;5087799;28;20052;-88
2023/09/11 07:51:59;;;;;;;1999.90;999.90;;;;;;;;;;5080470;28;20048;-88
2023/09/11 07:54:25;;;;;;;1999.90;999.90;;;;;;;;;;5081048;28;20040;-91
2023/09/11 07:56:52;;;;;;;1999.90;999.90;;;;;;;;;;5083720;28;20111;-88
2023/09/11 07:59:19;;;;;;;1999.90;999.90;;;;;;;;;;5091022;28;20044;-90
2023/09/11 08:01:46;;;;;;;1999.90;999.90;;;;;;;;;;5082408;28;20051;-89
2023/09/11 08:04:13;;;;;;;1999.90;999.90;;;;;;;;;;5089453;28;20382;-89
2023/09/11 08:06:40;;;;;;;1999.90;999.90;;;;;;;;;;5087822;28;20059;-89
2023/09/11 08:09:06;;;;;;;1999.90;999.90;;;;;;;;;;5093581;28;20047;-90
2023/09/11 08:11:34;;;;;;;1999.90;999.90;;;;;;;;;;5078055;28;20045;-89
2023/09/11 08:14:01;;;;;;;1999.90;999.90;;;;;;;;;;5089338;28;20047;-90
2023/09/11 08:16:30;;;;;;;1999.90;999.90;;;;;;;;;;5090686;28;20046;-89
2023/09/11 08:18:56;;;;;;;1999.90;999.90;;;;;;;;;;5082848;28;20055;-88
2023/09/11 08:21:24;;;;;;;1999.90;999.90;;;;;;;;;;5082942;28;20051;-89
2023/09/11 08:23:50;;;;;;;1999.90;999.90;;;;;;;;;;5081697;28;20045;-90
2023/09/11 08:26:17;;;;;;;1999.90;999.90;;;;;;;;;;5083478;28;20865;-88
2023/09/11 08:28:44;;;;;;;1999.90;999.90;;;;;;;;;;5080196;28;20036;-89
2023/09/11 08:31:10;;;;;;;1999.90;999.90;;;;;;;;;;5085704;28;20067;-88
2023/09/11 08:33:37;;;;;;;1999.90;999.90;;;;;;;;;;5084629;28;20075;-88
2023/09/11 08:36:04;;;;;;;1999.90;999.90;;;;;;;;;;5075520;28;20518;-87
2023/09/11 08:38:32;;;;;;;1999.90;999.90;;;;;;;;;;5083135;28;20068;-88
2023/09/11 08:40:58;;;;;;;1999.90;999.90;;;;;;;;;;5087134;28;20036;-87
2023/09/11 08:43:25;;;;;;;1999.90;999.90;;;;;;;;;;5085388;28;20055;-87
2023/09/11 08:45:53;;;;;;;1999.90;999.90;;;;;;;;;;5092690;28;20048;-87
2023/09/11 08:48:22;;;;;;;1999.90;999.90;;;;;;;;;;5074998;28;20048;-87
2023/09/11 08:50:51;;;;;;;1999.90;999.90;;;;;;;;;;5086052;28;20059;-85
2023/09/11 08:53:19;;;;;;;1999.90;999.90;;;;;;;;;;5096290;28;20055;-87
2023/09/11 08:55:47;;;;;;;1999.90;999.90;;;;;;;;;;5105532;28;20034;-88
2023/09/11 08:58:15;;;;;;;1999.90;999.90;;;;;;;;;;5102161;28;20124;-90
2023/09/11 09:00:42;;;;;;;1999.90;999.90;;;;;;;;;;5088145;28;20423;-88
2023/09/11 09:03:09;;;;;;;1999.90;999.90;;;;;;;;;;5083954;28;20404;-85
2023/09/11 09:05:36;;;;;;;1999.90;999.90;;;;;;;;;;5083296;28;20047;-88
2023/09/11 09:08:04;;;;;;;1999.90;999.90;;;;;;;;;;5082092;28;20056;-87
2023/09/11 09:10:31;;;;;;;1999.90;999.90;;;;;;;;;;5090830;28;20381;-86
2023/09/11 09:12:59;;;;;;;1999.90;999.90;;;;;;;;;;5094474;28;20138;-87
2023/09/11 09:15:26;;;;;;;1999.90;999.90;;;;;;;;;;5094122;28;20048;-91
2023/09/11 09:17:53;;;;;;;1999.90;999.90;;;;;;;;;;5085078;28;20040;-85
2023/09/11 09:20:20;;;;;;;1999.90;999.90;;;;;;;;;;5094300;28;20542;-85
2023/09/11 09:22:54;;;;;;;1999.90;999.90;;;;;;;;;;5084890;28;20504;-88
2023/09/11 09:25:20;;;;;;;1999.90;999.90;;;;;;;;;;5080356;28;20048;-86
2023/09/11 09:27:47;;;;;;;1999.90;999.90;;;;;;;;;;5080795;28;20382;-85
2023/09/11 09:30:20;;;;;;;1999.90;999.90;;;;;;;;;;5083468;28;20071;-88
2023/09/11 09:32:47;;;;;;;1999.90;999.90;;;;;;;;;;5074481;28;20505;-85
2023/09/11 09:35:14;;;;;;;1999.90;999.90;;;;;;;;;;5085845;28;20056;-84
2023/09/11 09:37:41;;;;;;;1999.90;999.90;;;;;;;;;;5089166;28;20063;-87
2023/09/11 09:40:08;;;;;;;1999.90;999.90;;;;;;;;;;5084887;28;20067;-85
2023/09/11 09:42:40;;;;;;;1999.90;999.90;;;;;;;;;;5091317;28;20404;-87
2023/09/11 09:45:07;;;;;;;1999.90;999.90;;;;;;;;;;5093909;28;20044;-85
2023/09/11 09:47:35;;;;;;;1999.90;999.90;;;;;;;;;;5094601;28;20051;-85
2023/09/11 09:50:02;;;;;;;1999.90;999.90;;;;;;;;;;5078709;28;20507;-85
2023/09/11 09:52:29;;;;;;;1999.90;999.90;;;;;;;;;;5083359;28;20063;-86
2023/09/11 09:54:57;;;;;;;1999.90;999.90;;;;;;;;;;5093353;28;20056;-87
2023/09/11 09:57:25;;;;;;;1999.90;999.90;;;;;;;;;;5093818;28;20135;-86
2023/09/11 09:59:53;;;;;;;1999.90;999.90;;;;;;;;;;5085560;28;20400;-86
2023/09/11 10:02:26;;;;;;;1999.90;999.90;;;;;;;;;;5089639;28;20052;-85
2023/09/11 10:04:54;;;;;;;1999.90;999.90;;;;;;;;;;5092091;28;20060;-86
2023/09/11 10:07:37;;;;;;;1999.90;999.90;;;;;;;;;;5081072;28;20044;-85
2023/09/11 10:10:19;;;;;;;1999.90;999.90;;;;;;;;;;5083445;28;20047;-86
2023/09/11 10:12:46;;;;;;;1999.90;999.90;;;;;;;;;;5074764;28;20052;-84
2023/09/11 10:15:13;;;;;;;1999.90;999.90;;;;;;;;;;5080789;28;20058;-86
2023/09/11 10:17:40;;;;;;;1999.90;999.90;;;;;;;;;;5081396;28;20050;-86
2023/09/11 10:20:08;;;;;;;1999.90;999.90;;;;;;;;;;5087146;28;20043;-86
2023/09/11 10:22:35;;;;;;;1999.90;999.90;;;;;;;;;;5071850;28;20059;-86
2023/09/11 10:25:01;;;;;;;1999.90;999.90;;;;;;;;;;5072790;28;20789;-85
2023/09/11 10:27:28;;;;;;;1999.90;999.90;;;;;;;;;;5072711;28;20048;-86
2023/09/11 10:30:01;;;;;;;1999.90;999.90;;;;;;;;;;5076006;28;20051;-85
2023/09/11 10:32:34;;;;;;;1999.90;999.90;;;;;;;;;;5085247;28;20727;-86
2023/09/11 10:35:02;;;;;;;1999.90;999.90;;;;;;;;;;5082989;28;20077;-87
2023/09/11 10:37:30;;;;;;;1999.90;999.90;;;;;;;;;;5082698;28;20105;-89
2023/09/11 10:39:59;;;;;;;1999.90;999.90;;;;;;;;;;5084829;28;20052;-84
2023/09/11 10:42:25;;;;;;;1999.90;999.90;;;;;;;;;;5090193;28;20044;-87
2023/09/11 10:44:53;;;;;;;1999.90;999.90;;;;;;;;;;5088997;28;20044;-86
2023/09/11 10:47:22;;;;;;;1999.90;999.90;;;;;;;;;;5078738;28;20485;-85
2023/09/11 10:49:50;;;;;;;1999.90;999.90;;;;;;;;;;5085445;28;20044;-85
2023/09/11 10:52:17;;;;;;;1999.90;999.90;;;;;;;;;;5080439;28;20049;-85
2023/09/11 10:54:47;;;;;;;1999.90;999.90;;;;;;;;;;5078170;28;20056;-86
2023/09/11 10:57:13;;;;;;;1999.90;999.90;;;;;;;;;;5086606;28;20052;-87
2023/09/11 10:59:40;;;;;;;1999.90;999.90;;;;;;;;;;5087061;28;20052;-86
2023/09/11 11:02:08;;;;;;;1999.90;999.90;;;;;;;;;;5080354;28;20040;-86
2023/09/11 11:04:35;;;;;;;1999.90;999.90;;;;;;;;;;5087667;28;20386;-87
2023/09/11 11:07:10;;;;;;;1999.90;999.90;;;;;;;;;;5082745;28;20044;-88
2023/09/11 11:09:40;;;;;;;1999.90;999.90;;;;;;;;;;5091697;28;20048;-87
2023/09/11 11:12:13;;;;;;;1999.90;999.90;;;;;;;;;;5087494;28;20094;-89
2023/09/11 11:14:39;;;;;;;1999.90;999.90;;;;;;;;;;5090918;28;20044;-88
2023/09/11 11:17:08;;;;;;;1999.90;999.90;;;;;;;;;;5093076;28;20242;-88
2023/09/11 11:19:36;;;;;;;1999.90;999.90;;;;;;;;;;5089461;28;20382;-87
2023/09/11 11:22:06;;;;;;;1999.90;999.90;;;;;;;;;;5075804;28;20054;-85
2023/09/11 11:24:35;;;;;;;1999.90;999.90;;;;;;;;;;5086989;28;20048;-88
2023/09/11 11:27:03;;;;;;;1999.90;999.90;;;;;;;;;;5078160;28;20049;-87
2023/09/11 11:29:31;;;;;;;1999.90;999.90;;;;;;;;;;5082695;28;20048;-85
2023/09/11 11:31:59;;;;;;;1999.90;999.90;;;;;;;;;;5083319;28;20048;-83
2023/09/11 11:34:28;;;;;;;1999.90;999.90;;;;;;;;;;5079908;28;20056;-84
2023/09/11 11:37:23;;;;;;;1999.90;999.90;;;;;;;;;;5091086;28;20048;-85
2023/09/11 11:39:50;;;;;;;1999.90;999.90;;;;;;;;;;5083591;28;20066;-85
2023/09/11 11:42:17;;;;;;;1999.90;999.90;;;;;;;;;;5084727;28;20044;-87
2023/09/11 11:44:45;;;;;;;1999.90;999.90;;;;;;;;;;5082201;28;20040;-86
2023/09/11 11:47:11;;;;;;;1999.90;999.90;;;;;;;;;;5085312;28;20475;-86
2023/09/11 11:49:38;;;;;;;1999.90;999.90;;;;;;;;;;5079451;28;20598;-85
2023/09/11 11:52:05;;;;;;;1999.90;999.90;;;;;;;;;;5086611;28;20052;-86
2023/09/11 11:54:34;;;;;;;1999.90;999.90;;;;;;;;;;5088424;28;20063;-86
2023/09/11 11:57:02;;;;;;;1999.90;999.90;;;;;;;;;;5080500;28;20051;-84
2023/09/11 11:59:30;;;;;;;1999.90;999.90;;;;;;;;;;5090477;28;20138;-85
2023/09/11 12:01:58;;;;;;;1999.90;999.90;;;;;;;;;;5084920;28;20044;-83
2023/09/11 12:04:25;;;;;;;1999.90;999.90;;;;;;;;;;5079924;28;20067;-85
2023/09/11 12:06:53;;;;;;;1999.90;999.90;;;;;;;;;;5088615;28;20051;-85
2023/09/11 12:09:20;;;;;;;1999.90;999.90;;;;;;;;;;5091957;28;20487;-85
2023/09/11 12:11:47;;;;;;;1999.90;999.90;;;;;;;;;;5090189;28;20048;-84
2023/09/11 12:14:13;;;;;;;1999.90;999.90;;;;;;;;;;5090192;28;20044;-86
2023/09/11 12:16:40;;;;;;;1999.90;999.90;;;;;;;;;;5081684;28;20045;-83
2023/09/11 12:19:08;;;;;;;1999.90;999.90;;;;;;;;;;5083018;28;20048;-83
2023/09/11 12:21:35;;;;;;;1999.90;999.90;;;;;;;;;;5089899;28;20052;-87
2023/09/11 12:24:02;;;;;;;1999.90;999.90;;;;;;;;;;5082845;28;20045;-85
2023/09/11 12:26:29;;;;;;;1999.90;999.90;;;;;;;;;;5086991;28;20419;-84
2023/09/11 12:28:55;;;;;;;1999.90;999.90;;;;;;;;;;5089608;28;20051;-88
2023/09/11 12:31:22;;;;;;;1999.90;999.90;;;;;;;;;;5086982;28;20044;-87
2023/09/11 12:33:53;;;;;;;1999.90;999.90;;;;;;;;;;5084439;28;21002;-85
2023/09/11 12:36:21;;;;;;;1999.90;999.90;;;;;;;;;;5083951;28;20055;-88
2023/09/11 12:38:48;;;;;;;1999.90;999.90;;;;;;;;;;5085395;28;20052;-85
2023/09/11 12:41:15;;;;;;;1999.90;999.90;;;;;;;;;;5080816;28;20700;-86
2023/09/11 12:43:41;;;;;;;1999.90;999.90;;;;;;;;;;5081238;28;20500;-85
2023/09/11 12:46:08;;;;;;;1999.90;999.90;;;;;;;;;;5078935;28;20055;-86
2023/09/11 12:48:40;;;;;;;1999.90;999.90;;;;;;;;;;5087671;28;20055;-86
2023/09/11 12:51:07;;;;;;;1999.90;999.90;;;;;;;;;;5093322;28;20047;-85
2023/09/11 12:53:35;;;;;;;1999.90;999.90;;;;;;;;;;5079391;28;20388;-86
2023/09/11 12:56:02;;;;;;;1999.90;999.90;;;;;;;;;;5087806;28;20044;-85
2023/09/11 12:58:28;;;;;;;1999.90;999.90;;;;;;;;;;5090793;28;20044;-84
2023/09/11 13:00:57;;;;;;;1999.90;999.90;;;;;;;;;;5081375;28;20067;-84
2023/09/11 13:03:24;;;;;;;1999.90;999.90;;;;;;;;;;5073461;28;20049;-84
2023/09/11 13:05:51;;;;;;;1999.90;999.90;;;;;;;;;;5086126;28;20044;-85
2023/09/11 13:08:17;;;;;;;1999.90;999.90;;;;;;;;;;5079230;28;20048;-87
2023/09/11 13:10:45;;;;;;;1999.90;999.90;;;;;;;;;;5073930;28;20044;-87
2023/09/11 13:13:11;;;;;;;1999.90;999.90;;;;;;;;;;5078075;28;20051;-87
2023/09/11 13:15:38;;;;;;;1999.90;999.90;;;;;;;;;;5083632;28;20258;-85
2023/09/11 13:18:05;;;;;;;1999.90;999.90;;;;;;;;;;5081864;28;20054;-87
2023/09/11 13:20:31;;;;;;;1999.90;999.90;;;;;;;;;;5086559;28;20048;-86
2023/09/11 13:22:58;;;;;;;1999.90;999.90;;;;;;;;;;5082278;28;20050;-89
2023/09/11 13:25:24;;;;;;;1999.90;999.90;;;;;;;;;;5075745;28;20481;-85
2023/09/11 13:27:52;;;;;;;1999.90;999.90;;;;;;;;;;5084025;28;20048;-86
2023/09/11 13:30:20;;;;;;;1999.90;999.90;;;;;;;;;;5072354;28;20052;-86
2023/09/11 13:32:47;;;;;;;1999.90;999.90;;;;;;;;;;5079619;28;20059;-87
2023/09/11 13:35:29;;;;;;;1999.90;999.90;;;;;;;;;;5087838;28;20054;-88
2023/09/11 13:37:55;;;;;;;1999.90;999.90;;;;;;;;;;5087921;28;20046;-87
2023/09/11 13:40:22;;;;;;;1999.90;999.90;;;;;;;;;;5081178;28;20046;-87
2023/09/11 13:42:49;;;;;;;1999.90;999.90;;;;;;;;;;5080436;28;20929;-86
2023/09/11 13:45:18;;;;;;;1999.90;999.90;;;;;;;;;;5092871;28;20058;-87
2023/09/11 13:47:44;;;;;;;1999.90;999.90;;;;;;;;;;5088681;28;20681;-86